createdAt,value
2019-06-20T00:01:33.477Z,64.05
2019-06-20T00:04:02.180Z,62.60
2019-06-20T00:06:31.647Z,61.79
2019-06-20T00:09:00.337Z,61.68
2019-06-20T00:11:29.630Z,61.31
2019-06-20T00:13:59.762Z,62.08
2019-06-20T00:16:28.475Z,62.43
2019-06-20T00:18:57.174Z,61.64
2019-06-20T00:21:25.871Z,61.74
2019-06-20T00:23:54.594Z,61.74
2019-06-20T00:26:23.295Z,61.29
2019-06-20T00:28:51.921Z,61.74
2019-06-20T00:31:20.671Z,63.57
2019-06-20T00:33:49.359Z,63.97
2019-06-20T00:36:18.258Z,63.09
2019-06-20T00:38:46.993Z,62.50
2019-06-20T00:41:15.693Z,63.87
2019-06-20T00:43:44.401Z,64.38
2019-06-20T00:46:13.126Z,63.64
2019-06-20T00:48:41.823Z,62.48
2019-06-20T00:51:10.533Z,63.17
2019-06-20T00:53:39.259Z,62.57
2019-06-20T00:56:08.150Z,62.77
2019-06-20T00:58:36.841Z,63.26
2019-06-20T01:01:06.080Z,63.72
2019-06-20T01:03:34.788Z,63.25
2019-06-20T01:06:03.493Z,62.53
2019-06-20T01:08:32.340Z,64.03
2019-06-20T01:11:01.032Z,65.71
2019-06-20T01:13:34.139Z,66.77
2019-06-20T01:16:00.176Z,67.58
2019-06-20T01:18:28.861Z,66.37
2019-06-20T01:20:57.970Z,67.62
2019-06-20T01:23:26.636Z,66.52
2019-06-20T01:25:55.253Z,64.29
2019-06-20T01:28:23.958Z,64.09
2019-06-20T01:30:52.629Z,64.08
2019-06-20T01:33:21.326Z,64.62
2019-06-20T01:35:50.020Z,63.57
2019-06-20T01:38:18.765Z,62.52
2019-06-20T01:40:47.395Z,61.72
2019-06-20T01:43:16.104Z,61.42
2019-06-20T01:45:44.847Z,61.32
2019-06-20T01:48:13.519Z,61.08
2019-06-20T01:50:42.452Z,61.09
2019-06-20T01:53:11.189Z,60.86
2019-06-20T01:55:40.090Z,61.25
2019-06-20T01:58:08.770Z,62.21
2019-06-20T02:00:43.345Z,64.08
2019-06-20T02:03:12.738Z,63.70
2019-06-20T02:05:41.425Z,63.18
2019-06-20T02:08:10.210Z,62.25
2019-06-20T02:10:38.906Z,62.81
2019-06-20T02:13:07.603Z,62.87
2019-06-20T02:15:36.339Z,63.47
2019-06-20T02:18:05.634Z,63.92
2019-06-20T02:20:37.560Z,63.90
2019-06-20T02:23:06.810Z,62.68
2019-06-20T02:25:35.633Z,61.52
2019-06-20T02:28:04.528Z,62.53
2019-06-20T02:30:33.299Z,62.04
2019-06-20T02:33:02.011Z,63.29
2019-06-20T02:35:30.708Z,64.08
2019-06-20T02:37:59.368Z,65.50
2019-06-20T02:40:28.001Z,64.55
2019-06-20T02:42:56.719Z,65.74
2019-06-20T02:45:25.450Z,65.95
2019-06-20T02:47:54.063Z,63.82
2019-06-20T02:50:22.754Z,64.70
2019-06-20T02:52:51.511Z,64.38
2019-06-20T02:55:20.314Z,63.96
2019-06-20T02:57:49.021Z,63.63
2019-06-20T03:00:23.425Z,63.87
2019-06-20T03:02:52.140Z,64.53
2019-06-20T03:05:20.766Z,63.67
2019-06-20T03:07:49.511Z,64.30
2019-06-20T03:10:18.313Z,63.95
2019-06-20T03:12:47.006Z,66.21
2019-06-20T03:15:15.843Z,67.24
2019-06-20T03:17:44.540Z,66.92
2019-06-20T03:20:13.243Z,65.36
2019-06-20T03:22:41.972Z,64.50
2019-06-20T03:25:12.113Z,63.86
2019-06-20T03:27:40.805Z,62.56
2019-06-20T03:30:10.028Z,62.97
2019-06-20T03:32:38.720Z,63.74
2019-06-20T03:35:07.618Z,63.85
2019-06-20T03:37:36.746Z,63.64
2019-06-20T03:40:06.351Z,63.57
2019-06-20T03:42:34.978Z,63.46
2019-06-20T03:45:04.015Z,64.11
2019-06-20T03:47:32.725Z,62.66
2019-06-20T03:50:01.414Z,62.72
2019-06-20T03:52:30.149Z,63.14
2019-06-20T03:54:58.865Z,61.94
2019-06-20T03:57:27.553Z,60.84
2019-06-20T03:59:56.297Z,60.83
2019-06-20T04:02:24.986Z,63.16
2019-06-20T04:04:53.687Z,63.02
2019-06-20T04:07:22.419Z,62.79
2019-06-20T04:09:51.121Z,63.47
2019-06-20T04:12:19.832Z,63.47
2019-06-20T04:14:49.233Z,63.51
2019-06-20T04:17:18.010Z,62.07
2019-06-20T04:19:46.663Z,64.25
2019-06-20T04:22:15.391Z,66.50
2019-06-20T04:24:44.088Z,66.24
2019-06-20T04:27:12.779Z,65.28
2019-06-20T04:29:41.504Z,65.01
2019-06-20T04:32:10.203Z,66.55
2019-06-20T04:34:38.894Z,65.82
2019-06-20T04:37:07.542Z,65.89
2019-06-20T04:39:36.239Z,64.08
2019-06-20T04:42:04.942Z,65.14
2019-06-20T04:44:33.669Z,63.69
2019-06-20T04:47:09.703Z,63.23
2019-06-20T04:49:38.386Z,65.42
2019-06-20T04:52:07.175Z,65.92
2019-06-20T04:54:35.867Z,65.94
2019-06-20T04:57:04.638Z,67.81
2019-06-20T04:59:33.267Z,67.04
2019-06-20T05:02:01.957Z,65.88
2019-06-20T05:04:30.700Z,64.44
2019-06-20T05:07:08.054Z,64.93
2019-06-20T05:09:36.772Z,65.49
2019-06-20T05:12:05.467Z,67.02
2019-06-20T05:14:34.095Z,66.27
2019-06-20T05:17:07.029Z,64.94
2019-06-20T05:19:33.630Z,64.25
2019-06-20T05:22:02.341Z,62.72
2019-06-20T05:24:31.063Z,64.55
2019-06-20T05:26:59.770Z,63.62
2019-06-20T05:29:28.464Z,64.84
2019-06-20T05:31:57.184Z,64.72
2019-06-20T05:34:25.896Z,63.37
2019-06-20T05:36:54.597Z,64.62
2019-06-20T05:39:23.330Z,64.38
2019-06-20T05:41:52.038Z,63.65
2019-06-20T05:44:20.737Z,63.63
2019-06-20T05:46:49.398Z,63.66
2019-06-20T05:49:19.043Z,63.87
2019-06-20T05:51:47.778Z,63.96
2019-06-20T05:54:16.439Z,63.23
2019-06-20T05:56:45.130Z,63.24
2019-06-20T05:59:13.759Z,64.91
2019-06-20T06:01:42.490Z,64.44
2019-06-20T06:04:11.196Z,63.17
2019-06-20T06:06:39.890Z,62.91
2019-06-20T06:09:09.579Z,63.79
2019-06-20T06:11:38.337Z,66.04
2019-06-20T06:14:07.043Z,62.65
2019-06-20T06:16:35.770Z,61.78
2019-06-20T06:19:04.467Z,62.19
2019-06-20T06:21:33.164Z,63.56
2019-06-20T06:24:01.910Z,63.79
2019-06-20T06:26:30.599Z,62.56
2019-06-20T06:28:59.241Z,61.12
2019-06-20T06:31:27.966Z,62.43
2019-06-20T06:33:56.665Z,60.46
2019-06-20T06:36:25.359Z,59.77
2019-06-20T06:38:54.087Z,59.53
2019-06-20T06:41:22.780Z,62.48
2019-06-20T06:43:51.457Z,61.99
2019-06-20T06:46:20.157Z,60.32
2019-06-20T06:48:48.870Z,61.92
2019-06-20T06:51:17.556Z,61.76
2019-06-20T06:53:46.283Z,61.43
2019-06-20T06:56:14.983Z,60.65
2019-06-20T06:58:43.619Z,59.44
2019-06-20T07:01:12.315Z,59.83
2019-06-20T07:03:40.975Z,60.21
2019-06-20T07:06:09.685Z,59.79
2019-06-20T07:08:38.405Z,60.59
2019-06-20T07:11:07.133Z,60.41
2019-06-20T07:13:35.763Z,59.75
2019-06-20T07:16:04.925Z,59.01
2019-06-20T07:18:33.562Z,60.48
2019-06-20T07:21:02.228Z,59.08
2019-06-20T07:23:30.967Z,58.57
2019-06-20T07:25:59.666Z,59.01
2019-06-20T07:28:28.290Z,57.32
2019-06-20T07:30:56.957Z,57.09
2019-06-20T07:33:25.654Z,55.18
2019-06-20T07:35:54.358Z,57.82
2019-06-20T07:38:25.172Z,59.75
2019-06-20T07:40:53.790Z,57.39
2019-06-20T07:43:22.583Z,56.51
2019-06-20T07:46:02.194Z,56.70
2019-06-20T07:48:21.590Z,57.69
2019-06-20T07:50:50.294Z,56.82
2019-06-20T07:53:19.030Z,54.77
2019-06-20T07:55:47.736Z,56.29
2019-06-20T07:58:16.345Z,55.05
2019-06-20T08:00:45.065Z,56.68
2019-06-20T08:03:13.762Z,54.54
2019-06-20T08:05:42.455Z,54.50
2019-06-20T08:08:11.117Z,54.58
2019-06-20T08:10:39.808Z,53.01
2019-06-20T08:13:08.432Z,52.86
2019-06-20T08:15:37.166Z,53.28
2019-06-20T08:18:06.257Z,52.79
2019-06-20T08:20:34.957Z,52.83
2019-06-20T08:23:04.464Z,53.79
2019-06-20T08:25:33.078Z,54.41
2019-06-20T08:28:02.421Z,52.25
2019-06-20T08:30:35.492Z,51.13
2019-06-20T08:33:09.909Z,50.63
2019-06-20T08:35:34.852Z,50.08
2019-06-20T08:38:05.481Z,48.13
2019-06-20T08:40:36.371Z,50.87
2019-06-20T08:43:06.252Z,52.06
2019-06-20T08:45:35.688Z,49.00
2019-06-20T08:48:04.886Z,47.81
2019-06-20T08:50:33.576Z,47.41
2019-06-20T08:53:03.541Z,47.43
2019-06-20T08:55:32.243Z,48.85
2019-06-20T08:58:01.604Z,48.86
2019-06-20T09:00:32.818Z,46.79
2019-06-20T09:05:30.965Z,46.71
2019-06-20T09:10:35.760Z,46.74
2019-06-20T09:13:04.568Z,47.81
2019-06-20T09:15:33.237Z,45.68
2019-06-20T09:18:02.910Z,46.65
2019-06-20T09:20:31.657Z,45.78
2019-06-20T09:23:01.037Z,44.38
2019-06-20T09:25:30.456Z,45.21
2019-06-20T09:28:00.466Z,43.79
2019-06-20T09:30:29.906Z,43.68
2019-06-20T09:32:59.955Z,43.83
2019-06-20T09:35:28.605Z,42.49
2019-06-20T09:37:57.238Z,42.26
2019-06-20T09:40:25.954Z,41.04
2019-06-20T09:42:54.603Z,42.87
2019-06-20T09:45:23.386Z,40.13
2019-06-20T09:47:52.283Z,42.33
2019-06-20T09:50:21.850Z,43.08
2019-06-20T09:52:51.575Z,41.46
2019-06-20T09:55:20.986Z,42.91
2019-06-20T09:57:50.776Z,42.61
2019-06-20T10:00:23.150Z,42.34
2019-06-20T10:02:52.437Z,44.18
2019-06-20T10:05:22.207Z,42.20
2019-06-20T10:07:52.301Z,41.96
2019-06-20T10:10:22.618Z,42.67
2019-06-20T10:12:51.764Z,40.14
2019-06-20T10:15:26.149Z,39.89
2019-06-20T10:17:55.038Z,43.02
2019-06-20T10:20:25.625Z,41.30
2019-06-20T10:22:54.559Z,41.00
2019-06-20T10:25:23.252Z,40.00
2019-06-20T10:27:53.289Z,43.93
2019-06-20T10:30:24.370Z,39.93
2019-06-20T10:32:53.307Z,43.19
2019-06-20T10:35:23.258Z,40.81
2019-06-20T10:37:53.025Z,39.32
2019-06-20T10:40:23.408Z,40.60
2019-06-20T10:42:52.922Z,40.40
2019-06-20T10:45:24.461Z,40.58
2019-06-20T10:47:53.900Z,40.98
2019-06-20T10:50:22.659Z,39.02
2019-06-20T10:52:51.927Z,40.25
2019-06-20T10:55:21.783Z,38.03
2019-06-20T10:57:51.699Z,40.63
2019-06-20T11:00:30.780Z,39.81
2019-06-20T11:02:53.764Z,40.47
2019-06-20T11:05:23.358Z,39.05
2019-06-20T11:07:52.022Z,39.45
2019-06-20T11:10:21.550Z,37.75
2019-06-20T11:12:55.667Z,37.41
2019-06-20T11:15:21.424Z,38.74
2019-06-20T11:17:50.115Z,36.04
2019-06-20T11:20:19.037Z,39.53
2019-06-20T11:22:48.115Z,40.47
2019-06-20T11:25:19.279Z,39.60
2019-06-20T11:27:47.775Z,40.20
2019-06-20T11:30:22.295Z,38.09
2019-06-20T11:32:50.910Z,40.69
2019-06-20T11:35:19.528Z,36.38
2019-06-20T11:37:48.181Z,36.01
2019-06-20T11:40:17.568Z,34.54
2019-06-20T11:42:46.908Z,36.62
2019-06-20T11:45:17.971Z,36.34
2019-06-20T11:47:47.352Z,37.89
2019-06-20T11:50:16.353Z,35.10
2019-06-20T11:52:45.892Z,35.53
2019-06-20T11:55:15.881Z,39.51
2019-06-20T11:57:44.565Z,44.32
2019-06-20T12:00:13.906Z,45.63
2019-06-20T12:02:44.084Z,46.11
2019-06-20T12:05:14.846Z,46.05
2019-06-20T12:07:45.416Z,46.35
2019-06-20T12:10:15.780Z,45.37
2019-06-20T12:12:44.788Z,45.34
2019-06-20T12:15:13.971Z,46.33
2019-06-20T12:17:43.418Z,48.13
2019-06-20T12:20:14.844Z,47.87
2019-06-20T12:22:44.932Z,49.50
2019-06-20T12:25:14.057Z,48.42
2019-06-20T12:27:43.112Z,50.58
2019-06-20T12:30:13.746Z,50.78
2019-06-20T12:32:42.592Z,50.14
2019-06-20T12:35:12.640Z,51.13
2019-06-20T12:37:42.581Z,51.63
2019-06-20T12:43:52.197Z,49.15
2019-06-20T12:46:20.890Z,51.33
2019-06-20T12:48:49.602Z,51.18
2019-06-20T12:51:18.263Z,50.32
2019-06-20T12:53:46.958Z,50.07
2019-06-20T12:56:15.656Z,50.37
2019-06-20T12:58:44.538Z,50.39
2019-06-20T13:01:13.181Z,48.45
2019-06-20T13:03:42.809Z,48.48
2019-06-20T13:06:11.620Z,48.40
2019-06-20T13:08:41.931Z,47.60
2019-06-20T13:11:10.658Z,54.11
2019-06-20T13:13:40.572Z,58.21
2019-06-20T13:16:09.267Z,60.56
2019-06-20T13:18:37.969Z,61.66
2019-06-20T13:21:06.704Z,60.80
2019-06-20T13:23:35.388Z,61.23
2019-06-20T13:26:04.091Z,60.81
2019-06-20T13:28:32.814Z,62.07
2019-06-20T13:31:01.501Z,62.84
2019-06-20T13:33:30.148Z,61.08
2019-06-20T13:35:58.874Z,64.46
2019-06-20T13:38:27.571Z,62.67
2019-06-20T13:40:56.202Z,62.27
2019-06-20T13:43:24.923Z,61.18
2019-06-20T13:45:54.236Z,61.34
2019-06-20T13:48:22.981Z,61.86
2019-06-20T13:50:51.744Z,61.83
2019-06-20T13:53:20.429Z,62.27
2019-06-20T13:55:50.279Z,62.08
2019-06-20T13:58:19.104Z,60.24
2019-06-20T14:00:47.948Z,60.47
2019-06-20T14:03:16.646Z,61.72
2019-06-20T14:05:45.509Z,60.76
2019-06-20T14:08:14.091Z,56.13
2019-06-20T14:10:44.101Z,59.10
2019-06-20T14:13:19.197Z,55.13
2019-06-20T14:15:44.465Z,55.86
2019-06-20T14:18:13.967Z,56.17
2019-06-20T14:20:44.575Z,57.23
2019-06-20T14:23:13.110Z,55.39
2019-06-20T14:25:42.446Z,57.47
2019-06-20T14:28:12.252Z,57.56
2019-06-20T14:30:40.949Z,54.91
2019-06-20T14:33:09.630Z,56.51
2019-06-20T14:35:38.294Z,56.28
2019-06-20T14:38:06.986Z,57.34
2019-06-20T14:40:35.667Z,55.54
2019-06-20T14:43:04.341Z,54.91
2019-06-20T14:45:33.035Z,55.00
2019-06-20T14:48:01.721Z,53.39
2019-06-20T14:50:30.455Z,49.88
2019-06-20T14:52:59.149Z,52.69
2019-06-20T14:55:27.843Z,54.08
2019-06-20T14:57:56.507Z,55.32
2019-06-20T15:00:26.763Z,52.72
2019-06-20T15:02:58.304Z,50.77
2019-06-20T15:05:25.838Z,50.24
2019-06-20T15:07:55.898Z,47.84
2019-06-20T15:10:24.744Z,48.99
2019-06-20T15:12:54.189Z,48.31
2019-06-20T15:15:24.080Z,48.86
2019-06-20T15:17:55.360Z,49.17
2019-06-20T15:20:23.178Z,50.31
2019-06-20T15:22:52.725Z,48.31
2019-06-20T15:25:21.556Z,50.16
2019-06-20T15:27:53.152Z,49.14
2019-06-20T15:30:20.784Z,48.64
2019-06-20T15:33:01.199Z,47.84
2019-06-20T15:35:19.959Z,51.43
2019-06-20T15:37:50.207Z,45.92
2019-06-20T15:40:19.776Z,47.52
2019-06-20T15:42:49.611Z,46.09
2019-06-20T15:45:19.108Z,47.10
2019-06-20T15:47:47.801Z,45.93
2019-06-20T15:50:16.655Z,46.35
2019-06-20T15:52:45.347Z,45.45
2019-06-20T15:55:17.167Z,46.63
2019-06-20T15:57:45.909Z,46.34
2019-06-20T16:00:16.336Z,47.90
2019-06-20T16:02:45.033Z,48.52
2019-06-20T16:05:13.876Z,50.36
2019-06-20T16:07:42.563Z,48.39
2019-06-20T16:10:11.962Z,48.38
2019-06-20T16:12:40.689Z,50.23
2019-06-20T16:15:10.501Z,50.51
2019-06-20T16:17:39.125Z,50.23
2019-06-20T16:20:07.935Z,52.83
2019-06-20T16:22:36.548Z,52.12
2019-06-20T16:25:06.137Z,51.41
2019-06-20T16:27:34.866Z,51.29
2019-06-20T16:30:05.030Z,55.00
2019-06-20T16:32:33.720Z,55.42
2019-06-20T16:35:02.443Z,54.92
2019-06-20T16:37:31.370Z,53.67
2019-06-20T16:40:00.074Z,52.37
2019-06-20T16:42:28.728Z,55.26
2019-06-20T16:44:57.420Z,57.31
2019-06-20T16:47:26.140Z,57.69
2019-06-20T16:49:54.904Z,55.79
2019-06-20T16:52:23.607Z,55.94
2019-06-20T16:54:52.290Z,56.79
2019-06-20T16:57:21.044Z,57.44
2019-06-20T16:59:49.651Z,55.94
2019-06-20T17:02:18.337Z,57.50
2019-06-20T17:04:47.077Z,57.92
2019-06-20T17:07:15.774Z,57.42
2019-06-20T17:09:44.463Z,57.10
2019-06-20T17:12:13.200Z,57.90
2019-06-20T17:14:41.896Z,58.24
2019-06-20T17:17:10.522Z,57.57
2019-06-20T17:19:42.070Z,57.17
2019-06-20T17:22:09.689Z,56.21
2019-06-20T17:24:38.394Z,57.06
2019-06-20T17:27:07.127Z,56.27
2019-06-20T17:29:35.820Z,56.47
2019-06-20T17:32:04.588Z,57.95
2019-06-20T17:34:33.288Z,56.98
2019-06-20T17:37:01.990Z,57.16
2019-06-20T17:39:30.627Z,56.39
2019-06-20T17:41:59.586Z,55.12
2019-06-20T17:44:28.290Z,55.20
2019-06-20T17:46:56.915Z,54.95
2019-06-20T17:49:25.689Z,55.52
2019-06-20T17:51:54.381Z,55.87
2019-06-20T17:54:23.066Z,54.99
2019-06-20T17:56:51.796Z,55.80
2019-06-20T17:59:22.815Z,55.75
2019-06-20T18:01:50.915Z,55.37
2019-06-20T18:04:19.667Z,54.39
2019-06-20T18:06:48.357Z,55.14
2019-06-20T18:09:17.049Z,55.35
2019-06-20T18:11:45.793Z,54.82
2019-06-20T18:14:14.487Z,54.31
2019-06-20T18:16:43.188Z,54.38
2019-06-20T18:19:11.858Z,53.83
2019-06-20T18:21:40.553Z,54.14
2019-06-20T18:24:09.271Z,54.10
2019-06-20T18:26:37.928Z,54.45
2019-06-20T18:29:06.624Z,54.37
2019-06-20T18:31:35.361Z,56.35
2019-06-20T18:34:04.134Z,55.85
2019-06-20T18:36:32.917Z,55.66
2019-06-20T18:39:02.864Z,57.49
2019-06-20T18:41:31.607Z,59.10
2019-06-20T18:44:00.308Z,61.73
2019-06-20T18:46:29.013Z,59.81
2019-06-20T18:48:57.753Z,59.89
2019-06-20T18:51:26.469Z,60.34
2019-06-20T18:53:55.165Z,60.83
2019-06-20T18:56:23.906Z,59.49
2019-06-20T18:58:52.606Z,59.06
2019-06-20T19:01:21.305Z,59.45
2019-06-20T19:03:50.042Z,59.63
2019-06-20T19:06:34.828Z,58.34
2019-06-20T19:08:49.173Z,58.51
2019-06-20T19:11:17.908Z,60.60
2019-06-20T19:13:46.610Z,60.56
2019-06-20T19:16:15.321Z,58.91
2019-06-20T19:18:44.074Z,57.93
2019-06-20T19:21:12.768Z,59.19
2019-06-20T19:23:41.468Z,57.23
2019-06-20T19:26:10.472Z,56.13
2019-06-20T19:28:39.194Z,54.84
2019-06-20T19:31:07.885Z,56.39
2019-06-20T19:33:36.628Z,57.01
2019-06-20T19:36:05.483Z,56.57
2019-06-20T19:38:34.233Z,55.66
2019-06-20T19:41:03.002Z,55.74
2019-06-20T19:43:31.693Z,55.47
2019-06-20T19:46:00.401Z,54.98
2019-06-20T19:48:29.127Z,54.86
2019-06-20T19:50:57.851Z,54.52
2019-06-20T19:53:26.576Z,54.95
2019-06-20T19:55:55.347Z,54.10
2019-06-20T19:58:23.980Z,56.07
2019-06-20T20:00:52.670Z,55.12
2019-06-20T20:03:21.504Z,53.59
2019-06-20T20:05:50.194Z,54.47
2019-06-20T20:08:18.890Z,54.53
2019-06-20T20:10:49.394Z,54.31
2019-06-20T20:13:18.488Z,54.06
2019-06-20T20:15:47.587Z,54.23
2019-06-20T20:18:16.719Z,54.76
2019-06-20T20:20:47.673Z,54.91
2019-06-20T20:23:16.584Z,55.17
2019-06-20T20:25:45.266Z,55.57
2019-06-20T20:28:13.953Z,55.13
2019-06-20T20:30:42.638Z,54.74
2019-06-20T20:33:11.475Z,55.05
2019-06-20T20:35:40.095Z,55.99
2019-06-20T20:38:08.788Z,57.40
2019-06-20T20:40:37.520Z,56.34
2019-06-20T20:43:06.212Z,56.01
2019-06-20T20:45:34.828Z,57.42
2019-06-20T20:48:03.561Z,57.93
2019-06-20T20:50:32.223Z,56.59
2019-06-20T20:53:00.846Z,58.05
2019-06-20T20:55:29.599Z,57.01
2019-06-20T20:57:58.287Z,55.74
2019-06-20T21:00:35.713Z,57.21
2019-06-20T21:03:07.340Z,56.37
2019-06-20T21:05:47.614Z,57.31
2019-06-20T21:08:05.343Z,57.32
2019-06-20T21:10:34.036Z,56.38
2019-06-20T21:13:02.727Z,56.29
2019-06-20T21:15:31.395Z,56.40
2019-06-20T21:18:00.018Z,55.99
2019-06-20T21:20:28.711Z,56.09
2019-06-20T21:22:57.437Z,55.84
2019-06-20T21:25:26.061Z,57.41
2019-06-20T21:27:54.759Z,57.02
2019-06-20T21:30:24.704Z,56.73
2019-06-20T21:32:53.409Z,56.38
2019-06-20T21:35:22.097Z,55.75
2019-06-20T21:37:50.815Z,55.44
2019-06-20T21:40:19.444Z,55.42
2019-06-20T21:42:48.059Z,55.89
2019-06-20T21:45:16.987Z,55.68
2019-06-20T21:47:45.667Z,56.98
2019-06-20T21:50:14.387Z,56.81
2019-06-20T21:52:43.106Z,56.63
2019-06-20T21:55:11.917Z,56.95
2019-06-20T21:57:40.623Z,57.76
2019-06-20T22:00:31.922Z,57.70
2019-06-20T22:03:00.609Z,57.58
2019-06-20T22:05:29.297Z,57.73
2019-06-20T22:07:58.037Z,57.09
2019-06-20T22:10:26.668Z,56.00
2019-06-20T22:12:55.361Z,56.49
2019-06-20T22:15:24.111Z,58.09
2019-06-20T22:17:52.726Z,58.56
2019-06-20T22:20:21.531Z,57.62
2019-06-20T22:22:50.192Z,57.90
2019-06-20T22:25:18.981Z,56.68
2019-06-20T22:27:47.659Z,56.14
2019-06-20T22:30:17.080Z,55.57
2019-06-20T22:32:45.769Z,55.82
2019-06-20T22:35:14.772Z,55.53
2019-06-20T22:37:43.442Z,55.85
2019-06-20T22:40:12.562Z,54.51
2019-06-20T22:42:41.180Z,54.59
2019-06-20T22:45:10.611Z,55.30
2019-06-20T22:47:39.302Z,54.94
2019-06-20T22:50:08.937Z,54.11
2019-06-20T22:52:37.660Z,54.07
2019-06-20T22:55:06.957Z,55.20
2019-06-20T22:57:35.578Z,55.04
2019-06-20T23:00:07.217Z,54.66
2019-06-20T23:02:35.913Z,55.61
2019-06-20T23:05:05.610Z,55.41
2019-06-20T23:07:34.342Z,55.66
2019-06-20T23:10:10.640Z,55.18
2019-06-20T23:12:33.488Z,54.89
2019-06-20T23:15:02.205Z,55.71
2019-06-20T23:17:30.902Z,55.50
2019-06-20T23:19:59.531Z,56.73
2019-06-20T23:22:31.037Z,55.57
2019-06-20T23:24:59.745Z,55.69
2019-06-20T23:27:28.429Z,56.15
2019-06-20T23:29:57.164Z,56.01
2019-06-20T23:32:25.853Z,56.18
2019-06-20T23:34:54.494Z,57.12
2019-06-20T23:37:23.137Z,57.34
2019-06-20T23:39:51.827Z,57.56
2019-06-20T23:42:20.520Z,59.01
2019-06-20T23:44:49.243Z,58.08
2019-06-20T23:47:17.928Z,58.18
2019-06-20T23:49:49.791Z,57.90
2019-06-20T23:52:23.056Z,57.92
2019-06-20T23:54:51.697Z,57.65
2019-06-20T23:57:20.376Z,57.35
2019-06-20T23:59:49.107Z,57.19
